Laotto, Indiana
Current Conditions -  °F | °C
As of 11:55 AM on Saturday 25 Oct 2014 (Local Time) from KGWB Reporting Station
Clear Clear  
Wind Chill: 63°   Ceiling: Unl
Heat Index: 63°   Visibility: 7mi
Dew Point: 54°   Wind: 12mph
Humidity: 72%   Direction: 260°W
Pressure: 29.89"   Gusts: 18mph
Location:  41.29°N, 85.2°W
Report Text: KGWB 251555Z AUTO 26010G16KT 7SM CLR 17/12 A2989 RMK AO2
Loading
Personal Weather Stations






























Interactive Weather Map
Tropical Storm Tracking
New forecast layout! Learn more

10-Day Weather Forecast

Advertisements
Track Severe Weather on mobile